Terminal Aerodrome Forecast
Issued by NWS Louisville, KY

Home | Current Version | Previous Version | Text Only | Print | Product List | Glossary On
Versions: 1 2 3 4 5 6 7 8 9 10 11 12 13 14 15 16 17 18 19 20 21 22 23 24 25
000
FTUS43 KLMK 250500
TAFSDF
TAF
KSDF 250520Z 2506/2612 15007KT P6SM SCT050 BKN250
     FM250800 19012KT P6SM VCSH BKN050
     FM251100 21012KT P6SM BKN025
     FM251600 22009KT P6SM BKN040=

USA.gov is the U.S. government's official web portal to all federal, state and local government web resources and services.